createdAt,value
2022-11-07T00:00:30.337Z,98447.78
2022-11-07T00:01:33.087Z,98451.38
2022-11-07T00:02:36.002Z,98451.06
2022-11-07T00:03:39.015Z,98453.19
2022-11-07T00:04:42.409Z,98441.66
2022-11-07T00:05:45.187Z,98448.44
2022-11-07T00:06:48.100Z,98447.72
2022-11-07T00:07:51.019Z,98439.37
2022-11-07T00:08:55.695Z,98445.09
2022-11-07T00:09:58.534Z,98458.03
2022-11-07T00:11:02.179Z,98458.59
2022-11-07T00:12:08.934Z,98451.72
2022-11-07T00:13:11.950Z,98452.63
2022-11-07T00:14:17.104Z,98459.09
2022-11-07T00:15:19.994Z,98463.94
2022-11-07T00:16:22.970Z,98454.28
2022-11-07T00:17:25.827Z,98449.00
2022-11-07T00:18:28.823Z,98450.28
2022-11-07T00:19:31.628Z,98453.69
2022-11-07T00:20:34.432Z,98448.09
2022-11-07T00:21:38.537Z,98456.97
2022-11-07T00:22:41.258Z,98453.09
2022-11-07T00:23:44.111Z,98462.91
2022-11-07T00:24:46.911Z,98463.16
2022-11-07T00:25:49.701Z,98466.50
2022-11-07T00:26:52.605Z,98468.66
2022-11-07T00:28:00.212Z,98464.69
2022-11-07T00:29:04.431Z,98464.13
2022-11-07T00:30:07.592Z,98464.44
2022-11-07T00:31:12.830Z,98465.03
2022-11-07T00:32:15.692Z,98464.44
2022-11-07T00:33:18.431Z,98470.31
2022-11-07T00:34:21.213Z,98473.00
2022-11-07T00:35:24.199Z,98469.34
2022-11-07T00:36:28.928Z,98468.00
2022-11-07T00:37:31.638Z,98480.28
2022-11-07T00:38:34.508Z,98475.06
2022-11-07T00:39:37.199Z,98467.25
2022-11-07T00:40:40.133Z,98474.22
2022-11-07T00:41:42.821Z,98468.87
2022-11-07T00:42:45.646Z,98469.94
2022-11-07T00:43:48.747Z,98470.41
2022-11-07T00:44:51.599Z,98468.37
2022-11-07T00:45:54.421Z,98466.88
2022-11-07T00:46:57.298Z,98466.38
2022-11-07T00:48:00.129Z,98468.16
2022-11-07T00:49:02.904Z,98469.78
2022-11-07T00:50:06.908Z,98465.06
2022-11-07T00:51:15.454Z,98476.34
2022-11-07T00:52:18.255Z,98469.06
2022-11-07T00:53:21.062Z,98464.28
2022-11-07T00:54:23.970Z,98464.28
2022-11-07T00:55:26.944Z,98457.97
2022-11-07T00:56:29.825Z,98461.34
2022-11-07T00:57:32.837Z,98462.13
2022-11-07T00:58:36.342Z,98458.75
2022-11-07T00:59:39.420Z,98463.78
2022-11-07T01:00:42.847Z,98463.31
2022-11-07T01:01:45.784Z,98472.66
2022-11-07T01:03:08.621Z,98464.31
2022-11-07T01:04:33.595Z,98469.53
2022-11-07T01:05:36.703Z,98462.84
2022-11-07T01:06:41.541Z,98468.72
2022-11-07T01:07:44.684Z,98468.97
2022-11-07T01:08:47.848Z,98466.38
2022-11-07T01:09:50.654Z,98469.31
2022-11-07T01:10:53.612Z,98464.09
2022-11-07T01:11:56.378Z,98469.87
2022-11-07T01:12:59.341Z,98470.19
2022-11-07T01:14:06.710Z,98468.34
2022-11-07T01:15:10.337Z,98474.56
2022-11-07T01:16:13.259Z,98480.00
2022-11-07T01:17:16.022Z,98484.44
2022-11-07T01:18:18.815Z,98480.28
2022-11-07T01:19:22.259Z,98485.03
2022-11-07T01:20:25.057Z,98481.09
2022-11-07T01:21:28.073Z,98476.37
2022-11-07T01:22:30.899Z,98471.97
2022-11-07T01:23:34.157Z,98473.22
2022-11-07T01:24:37.121Z,98469.06
2022-11-07T01:25:40.385Z,98459.84
2022-11-07T01:26:48.083Z,98462.66
2022-11-07T01:27:51.045Z,98473.38
2022-11-07T01:28:54.043Z,98470.25
2022-11-07T01:29:56.844Z,98463.56
2022-11-07T01:31:02.662Z,98468.56
2022-11-07T01:32:11.733Z,98465.56
2022-11-07T01:33:15.135Z,98458.84
2022-11-07T01:34:18.671Z,98468.19
2022-11-07T01:35:21.465Z,98463.78
2022-11-07T01:36:24.387Z,98467.22
2022-11-07T01:37:27.214Z,98474.28
2022-11-07T01:38:30.169Z,98473.12
2022-11-07T01:39:33.155Z,98471.75
2022-11-07T01:41:01.181Z,98472.00
2022-11-07T01:42:04.677Z,98468.50
2022-11-07T01:43:10.284Z,98470.94
2022-11-07T01:44:12.889Z,98471.31
2022-11-07T01:45:27.755Z,98476.84
2022-11-07T01:46:40.509Z,98474.59
2022-11-07T01:47:43.577Z,98473.28
2022-11-07T01:48:56.864Z,98473.50
2022-11-07T01:50:00.944Z,98478.56
2022-11-07T01:51:04.113Z,98479.53
2022-11-07T01:52:32.053Z,98475.16
2022-11-07T01:53:35.998Z,98480.00
2022-11-07T01:54:59.209Z,98482.13
2022-11-07T01:56:05.559Z,98474.84
2022-11-07T01:57:14.184Z,98466.00
2022-11-07T01:58:16.946Z,98475.44
2022-11-07T01:59:27.916Z,98476.50
2022-11-07T02:00:31.870Z,98474.44
2022-11-07T02:01:34.907Z,98475.47
2022-11-07T02:02:38.338Z,98474.66
2022-11-07T02:03:41.370Z,98478.59
2022-11-07T02:04:44.614Z,98479.31
2022-11-07T02:05:59.401Z,98470.84
2022-11-07T02:07:11.948Z,98478.16
2022-11-07T02:08:16.718Z,98482.50
2022-11-07T02:09:19.582Z,98487.22
2022-11-07T02:10:23.464Z,98482.78
2022-11-07T02:11:26.456Z,98487.66
2022-11-07T02:12:29.663Z,98482.13
2022-11-07T02:13:38.783Z,98483.13
2022-11-07T02:14:44.914Z,98479.78
2022-11-07T02:15:47.872Z,98481.88
2022-11-07T02:16:50.612Z,98484.06
2022-11-07T02:17:54.096Z,98480.00
2022-11-07T02:18:57.068Z,98480.66
2022-11-07T02:19:59.863Z,98482.47
2022-11-07T02:21:30.734Z,98476.19
2022-11-07T02:22:47.455Z,98478.97
2022-11-07T02:24:28.986Z,98481.22
2022-11-07T02:25:32.183Z,98477.72
2022-11-07T02:26:37.499Z,98475.81
2022-11-07T02:27:42.470Z,98469.50
2022-11-07T02:28:48.745Z,98480.00
2022-11-07T02:29:57.376Z,98485.28
2022-11-07T02:31:00.267Z,98474.94
2022-11-07T02:32:06.768Z,98476.69
2022-11-07T02:33:21.133Z,98482.31
2022-11-07T02:34:23.780Z,98476.06
2022-11-07T02:35:35.374Z,98479.09
2022-11-07T02:36:38.272Z,98480.62
2022-11-07T02:37:41.921Z,98478.84
2022-11-07T02:38:46.890Z,98478.72
2022-11-07T02:39:50.316Z,98475.66
2022-11-07T02:41:00.459Z,98483.00
2022-11-07T02:42:06.645Z,98475.72
2022-11-07T02:43:16.123Z,98471.13
2022-11-07T02:44:19.567Z,98480.19
2022-11-07T02:45:28.459Z,98472.88
2022-11-07T02:46:32.955Z,98474.44
2022-11-07T02:47:36.133Z,98472.25
2022-11-07T02:48:48.846Z,98472.25
2022-11-07T02:49:54.913Z,98474.06
2022-11-07T02:50:58.056Z,98470.50
2022-11-07T02:52:00.741Z,98472.69
2022-11-07T02:53:03.508Z,98465.59
2022-11-07T02:54:06.296Z,98467.88
2022-11-07T02:55:09.821Z,98473.06
2022-11-07T02:56:12.995Z,98474.28
2022-11-07T02:57:16.505Z,98471.03
2022-11-07T02:58:19.396Z,98468.00
2022-11-07T02:59:26.843Z,98471.88
2022-11-07T03:00:30.205Z,98466.50
2022-11-07T03:01:33.246Z,98465.59
2022-11-07T03:02:36.315Z,98461.59
2022-11-07T03:03:45.232Z,98461.34
2022-11-07T03:04:49.244Z,98465.25
2022-11-07T03:05:52.393Z,98459.19
2022-11-07T03:06:55.362Z,98456.31
2022-11-07T03:07:58.268Z,98456.41
2022-11-07T03:09:01.195Z,98457.19
2022-11-07T03:10:04.298Z,98452.00
2022-11-07T03:11:11.831Z,98459.03
2022-11-07T03:12:14.689Z,98457.12
2022-11-07T03:13:17.710Z,98458.31
2022-11-07T03:14:20.559Z,98461.91
2022-11-07T03:15:23.579Z,98461.22
2022-11-07T03:16:26.498Z,98463.75
2022-11-07T03:17:29.376Z,98468.47
2022-11-07T03:18:35.289Z,98469.06
2022-11-07T03:19:38.085Z,98461.94
2022-11-07T03:20:44.789Z,98468.09
2022-11-07T03:21:50.989Z,98459.88
2022-11-07T03:22:53.897Z,98464.34
2022-11-07T03:23:56.673Z,98469.69
2022-11-07T03:24:59.520Z,98466.34
2022-11-07T03:26:03.491Z,98473.12
2022-11-07T03:27:06.268Z,98465.62
2022-11-07T03:28:09.843Z,98469.69
2022-11-07T03:29:12.665Z,98476.69
2022-11-07T03:30:16.355Z,98467.16
2022-11-07T03:31:19.207Z,98471.94
2022-11-07T03:32:23.395Z,98467.09
2022-11-07T03:33:26.246Z,98470.28
2022-11-07T03:34:29.036Z,98466.94
2022-11-07T03:35:32.070Z,98471.78
2022-11-07T03:36:34.878Z,98463.91
2022-11-07T03:37:37.768Z,98466.75
2022-11-07T03:38:40.790Z,98472.94
2022-11-07T03:39:43.646Z,98472.66
2022-11-07T03:40:46.802Z,98466.75
2022-11-07T03:41:49.492Z,98458.59
2022-11-07T03:42:52.379Z,98468.56
2022-11-07T03:43:55.375Z,98477.16
2022-11-07T03:44:58.181Z,98472.78
2022-11-07T03:46:00.926Z,98468.37
2022-11-07T03:47:03.771Z,98469.87
2022-11-07T03:48:10.882Z,98466.81
2022-11-07T03:49:13.786Z,98473.31
2022-11-07T03:50:19.206Z,98468.81
2022-11-07T03:51:21.962Z,98470.44
2022-11-07T03:52:24.687Z,98464.72
2022-11-07T03:53:27.697Z,98465.00
2022-11-07T03:54:30.951Z,98472.56
2022-11-07T03:55:33.661Z,98468.03
2022-11-07T03:57:45.136Z,98476.78
2022-11-07T03:58:47.954Z,98477.37
2022-11-07T03:59:50.748Z,98476.59
2022-11-07T04:00:53.692Z,98480.06
2022-11-07T04:01:56.491Z,98486.06
2022-11-07T04:02:59.411Z,98487.06
2022-11-07T04:04:05.872Z,98484.69
2022-11-07T04:05:08.933Z,98484.53
2022-11-07T04:06:12.057Z,98487.59
2022-11-07T04:07:14.985Z,98488.94
2022-11-07T04:08:17.880Z,98490.44
2022-11-07T04:09:20.626Z,98491.22
2022-11-07T04:10:23.334Z,98491.59
2022-11-07T04:11:44.827Z,98501.63
2022-11-07T04:13:06.015Z,98499.37
2022-11-07T04:14:27.236Z,98499.91
2022-11-07T04:15:48.574Z,98499.81
2022-11-07T04:17:10.096Z,98501.19
2022-11-07T04:18:13.234Z,98503.81
2022-11-07T04:19:16.054Z,98505.38
2022-11-07T04:20:19.055Z,98501.50
2022-11-07T04:21:21.890Z,98506.13
2022-11-07T04:22:26.187Z,98508.75
2022-11-07T04:23:29.015Z,98504.28
2022-11-07T04:24:32.052Z,98498.63
2022-11-07T04:25:53.295Z,98499.37
2022-11-07T04:27:14.574Z,98507.72
2022-11-07T04:28:18.135Z,98510.34
2022-11-07T04:29:20.939Z,98499.16
2022-11-07T04:30:25.095Z,98501.50
2022-11-07T04:32:35.223Z,98495.56
2022-11-07T04:33:37.935Z,98497.66
2022-11-07T04:34:40.816Z,98494.75
2022-11-07T04:35:43.654Z,98491.91
2022-11-07T04:36:46.413Z,98490.91
2022-11-07T04:37:49.741Z,98498.38
2022-11-07T04:38:52.533Z,98489.22
2022-11-07T04:39:55.214Z,98498.38
2022-11-07T04:40:58.852Z,98491.66
2022-11-07T04:42:01.774Z,98484.87
2022-11-07T04:43:09.396Z,98485.91
2022-11-07T04:44:13.799Z,98487.91
2022-11-07T04:45:17.620Z,98476.84
2022-11-07T04:46:20.451Z,98476.59
2022-11-07T04:47:23.894Z,98472.16
2022-11-07T04:48:26.697Z,98475.28
2022-11-07T04:49:33.019Z,98478.13
2022-11-07T04:50:35.820Z,98476.84
2022-11-07T04:51:43.414Z,98476.59
2022-11-07T04:52:47.093Z,98484.87
2022-11-07T04:53:49.786Z,98480.44
2022-11-07T04:54:52.657Z,98487.44
2022-11-07T04:55:55.373Z,98481.88
2022-11-07T04:56:58.175Z,98483.78
2022-11-07T04:58:01.174Z,98483.50
2022-11-07T04:59:03.935Z,98488.16
2022-11-07T05:00:07.497Z,98489.50
2022-11-07T05:01:10.533Z,98493.19
2022-11-07T05:02:13.839Z,98495.28
2022-11-07T05:03:17.059Z,98493.41
2022-11-07T05:04:20.104Z,98495.16
2022-11-07T05:05:22.937Z,98495.00
2022-11-07T05:06:26.536Z,98498.87
2022-11-07T05:07:29.487Z,98506.53
2022-11-07T05:08:34.731Z,98499.28
2022-11-07T05:09:37.853Z,98497.88
2022-11-07T05:10:40.737Z,98498.87
2022-11-07T05:11:43.919Z,98499.06
2022-11-07T05:12:47.051Z,98502.25
2022-11-07T05:13:49.892Z,98506.75
2022-11-07T05:14:52.635Z,98509.72
2022-11-07T05:15:55.482Z,98509.25
2022-11-07T05:16:58.914Z,98504.25
2022-11-07T05:18:01.723Z,98499.69
2022-11-07T05:19:04.674Z,98491.37
2022-11-07T05:20:12.119Z,98494.94
2022-11-07T05:21:14.931Z,98492.59
2022-11-07T05:22:36.091Z,98493.00
2022-11-07T05:23:39.126Z,98502.16
2022-11-07T05:24:41.926Z,98505.81
2022-11-07T05:25:50.288Z,98506.13
2022-11-07T05:26:53.136Z,98506.19
2022-11-07T05:27:56.275Z,98510.47
2022-11-07T05:28:59.051Z,98504.44
2022-11-07T05:30:02.086Z,98502.03
2022-11-07T05:31:07.614Z,98501.63
2022-11-07T05:32:10.473Z,98494.78
2022-11-07T05:33:16.386Z,98507.41
2022-11-07T05:34:19.392Z,98503.38
2022-11-07T05:35:22.267Z,98506.22
2022-11-07T05:36:25.538Z,98510.88
2022-11-07T05:37:28.858Z,98512.13
2022-11-07T05:38:31.684Z,98507.09
2022-11-07T05:39:34.398Z,98509.97
2022-11-07T05:40:41.100Z,98522.00
2022-11-07T05:41:43.958Z,98524.06
2022-11-07T05:42:46.663Z,98526.44
2022-11-07T05:43:49.517Z,98531.34
2022-11-07T05:44:52.396Z,98523.75
2022-11-07T05:46:02.083Z,98527.22
2022-11-07T05:47:04.969Z,98533.25
2022-11-07T05:48:13.062Z,98532.78
2022-11-07T05:49:15.971Z,98532.78
2022-11-07T05:50:18.864Z,98540.84
2022-11-07T05:51:22.330Z,98543.09
2022-11-07T05:52:25.101Z,98542.75
2022-11-07T05:53:28.527Z,98547.66
2022-11-07T05:54:33.293Z,98547.22
2022-11-07T05:55:36.206Z,98544.41
2022-11-07T05:56:39.105Z,98550.97
2022-11-07T05:57:41.941Z,98550.94
2022-11-07T05:58:45.288Z,98550.94
2022-11-07T05:59:48.033Z,98547.22
2022-11-07T06:00:50.858Z,98546.69
2022-11-07T06:01:54.195Z,98543.56
2022-11-07T06:03:00.639Z,98550.84
2022-11-07T06:04:04.825Z,98547.69
2022-11-07T06:05:07.912Z,98550.00
2022-11-07T06:06:10.672Z,98551.81
2022-11-07T06:07:13.399Z,98560.69
2022-11-07T06:08:16.369Z,98557.84
2022-11-07T06:09:19.146Z,98560.22
2022-11-07T06:10:22.603Z,98549.19
2022-11-07T06:11:25.398Z,98557.38
2022-11-07T06:12:28.127Z,98565.22
2022-11-07T06:13:30.982Z,98565.38
2022-11-07T06:14:33.799Z,98567.56
2022-11-07T06:15:38.070Z,98563.28
2022-11-07T06:16:40.852Z,98567.19
2022-11-07T06:17:43.557Z,98575.47
2022-11-07T06:18:46.308Z,98580.38
2022-11-07T06:20:02.056Z,98580.09
2022-11-07T06:21:05.189Z,98582.41
2022-11-07T06:22:08.217Z,98581.81
2022-11-07T06:23:11.887Z,98586.72
2022-11-07T06:24:15.616Z,98574.38
2022-11-07T06:25:18.624Z,98584.03
2022-11-07T06:26:21.642Z,98582.50
2022-11-07T06:27:24.526Z,98585.91
2022-11-07T06:28:27.482Z,98597.41
2022-11-07T06:29:33.968Z,98591.16
2022-11-07T06:30:37.175Z,98599.19
2022-11-07T06:31:41.383Z,98599.72
2022-11-07T06:32:46.098Z,98589.47
2022-11-07T06:33:52.804Z,98600.94
2022-11-07T06:34:55.688Z,98596.75
2022-11-07T06:36:10.218Z,98600.38
2022-11-07T06:37:16.926Z,98600.91
2022-11-07T06:38:19.858Z,98604.06
2022-11-07T06:39:23.401Z,98601.66
2022-11-07T06:40:26.193Z,98605.59
2022-11-07T06:41:29.000Z,98608.09
2022-11-07T06:42:32.690Z,98617.81
2022-11-07T06:43:35.782Z,98617.81
2022-11-07T06:44:38.677Z,98609.88
2022-11-07T06:45:42.223Z,98605.97
2022-11-07T06:46:47.880Z,98610.88
2022-11-07T06:47:50.688Z,98613.44
2022-11-07T06:48:54.482Z,98612.41
2022-11-07T06:49:57.382Z,98611.34
2022-11-07T06:51:01.701Z,98613.09
2022-11-07T06:52:04.897Z,98613.31
2022-11-07T06:53:12.204Z,98604.16
2022-11-07T06:54:15.536Z,98616.13
2022-11-07T06:55:18.320Z,98616.13
2022-11-07T06:56:21.158Z,98617.00
2022-11-07T06:57:24.469Z,98611.88
2022-11-07T06:58:27.652Z,98614.53
2022-11-07T06:59:30.472Z,98621.09
2022-11-07T07:00:35.355Z,98618.72
2022-11-07T07:01:38.617Z,98621.91
2022-11-07T07:02:58.110Z,98614.41
2022-11-07T07:04:02.020Z,98618.09
2022-11-07T07:05:05.072Z,98620.31
2022-11-07T07:06:12.515Z,98623.16
2022-11-07T07:07:15.342Z,98622.53
2022-11-07T07:08:18.561Z,98622.00
2022-11-07T07:09:21.892Z,98622.69
2022-11-07T07:10:25.621Z,98624.47
2022-11-07T07:11:28.541Z,98625.78
2022-11-07T07:12:31.406Z,98633.81
2022-11-07T07:13:35.054Z,98628.72
2022-11-07T07:14:37.874Z,98628.81
2022-11-07T07:15:51.269Z,98625.19
2022-11-07T07:16:54.523Z,98627.50
2022-11-07T07:18:00.471Z,98626.75
2022-11-07T07:19:04.159Z,98633.16
2022-11-07T07:20:07.710Z,98631.22
2022-11-07T07:21:13.844Z,98635.66
2022-11-07T07:22:16.558Z,98627.84
2022-11-07T07:23:24.014Z,98628.72
2022-11-07T07:24:26.972Z,98634.56
2022-11-07T07:25:29.987Z,98630.41
2022-11-07T07:26:32.798Z,98625.75
2022-11-07T07:27:35.947Z,98628.13
2022-11-07T07:28:38.940Z,98633.25
2022-11-07T07:29:42.227Z,98627.28
2022-11-07T07:30:51.373Z,98636.44
2022-11-07T07:31:54.882Z,98628.06
2022-11-07T07:32:57.739Z,98641.97
2022-11-07T07:34:00.672Z,98642.78
2022-11-07T07:35:03.859Z,98645.41
2022-11-07T07:36:07.608Z,98641.44
2022-11-07T07:37:11.119Z,98638.31
2022-11-07T07:38:14.274Z,98649.03
2022-11-07T07:39:17.549Z,98643.16
2022-11-07T07:40:21.256Z,98642.72
2022-11-07T07:41:24.091Z,98639.75
2022-11-07T07:42:26.918Z,98646.16
2022-11-07T07:43:30.336Z,98639.13
2022-11-07T07:44:33.154Z,98645.03
2022-11-07T07:45:36.001Z,98640.56
2022-11-07T07:46:38.865Z,98647.28
2022-11-07T07:47:42.108Z,98641.06
2022-11-07T07:48:45.935Z,98643.16
2022-11-07T07:49:48.850Z,98645.97
2022-11-07T07:50:53.182Z,98646.13
2022-11-07T07:51:56.236Z,98644.44
2022-11-07T07:53:00.770Z,98648.88
2022-11-07T07:54:06.604Z,98646.59
2022-11-07T07:55:10.396Z,98649.44
2022-11-07T07:56:15.321Z,98642.28
2022-11-07T07:57:18.204Z,98656.44
2022-11-07T07:58:21.079Z,98646.34
2022-11-07T07:59:24.092Z,98650.00
2022-11-07T08:00:30.577Z,98650.94
2022-11-07T08:01:33.823Z,98641.72
2022-11-07T08:02:37.009Z,98651.22
2022-11-07T08:04:00.232Z,98646.50
2022-11-07T08:05:03.214Z,98652.75
2022-11-07T08:06:06.673Z,98644.03
2022-11-07T08:07:10.040Z,98646.22
2022-11-07T08:08:13.107Z,98644.75
2022-11-07T08:09:16.001Z,98649.75
2022-11-07T08:10:40.801Z,98651.41
2022-11-07T08:11:42.913Z,98653.81
2022-11-07T08:12:47.714Z,98648.88
2022-11-07T08:13:50.688Z,98647.22
2022-11-07T08:14:53.460Z,98649.56
2022-11-07T08:15:57.134Z,98648.53
2022-11-07T08:17:00.070Z,98640.81
2022-11-07T08:18:06.621Z,98649.75
2022-11-07T08:19:09.626Z,98648.88
2022-11-07T08:20:15.347Z,98648.56
2022-11-07T08:21:18.492Z,98645.88
2022-11-07T08:22:21.681Z,98636.81
2022-11-07T08:23:24.913Z,98640.81
2022-11-07T08:24:27.738Z,98639.09
2022-11-07T08:26:38.792Z,98644.03
2022-11-07T08:27:41.634Z,98642.44
2022-11-07T08:28:44.530Z,98645.44
2022-11-07T08:29:47.423Z,98648.62
2022-11-07T08:30:59.004Z,98642.69
2022-11-07T08:32:02.003Z,98647.72
2022-11-07T08:33:04.929Z,98640.94
2022-11-07T08:34:07.922Z,98637.94
2022-11-07T08:35:10.850Z,98642.84
2022-11-07T08:36:13.660Z,98651.34
2022-11-07T08:37:16.670Z,98640.44
2022-11-07T08:38:20.403Z,98638.31
2022-11-07T08:39:23.246Z,98642.59
2022-11-07T08:40:26.634Z,98637.69
2022-11-07T08:41:29.495Z,98643.81
2022-11-07T08:42:32.287Z,98635.56
2022-11-07T08:43:35.188Z,98635.75
2022-11-07T08:44:38.312Z,98638.53
2022-11-07T08:45:41.217Z,98642.81
2022-11-07T08:46:44.125Z,98645.84
2022-11-07T08:47:46.965Z,98643.66
2022-11-07T08:48:50.074Z,98643.19
2022-11-07T08:49:52.943Z,98646.72
2022-11-07T08:50:57.650Z,98640.75
2022-11-07T08:52:01.496Z,98646.31
2022-11-07T08:53:04.334Z,98648.03
2022-11-07T08:54:07.076Z,98644.63
2022-11-07T08:55:10.602Z,98648.00
2022-11-07T08:56:13.534Z,98645.72
2022-11-07T08:57:16.322Z,98647.38
2022-11-07T08:58:19.978Z,98649.50
2022-11-07T08:59:23.353Z,98647.03
2022-11-07T09:00:26.303Z,98652.69
2022-11-07T09:01:29.466Z,98645.81
2022-11-07T09:03:23.958Z,98651.66
2022-11-07T09:03:58.225Z,98655.72
2022-11-07T09:05:01.564Z,98656.25
2022-11-07T09:06:05.225Z,98658.41
2022-11-07T09:07:08.473Z,98654.19
2022-11-07T09:08:11.391Z,98664.59
2022-11-07T09:09:16.738Z,98664.50
2022-11-07T09:10:20.004Z,98660.75
2022-11-07T09:11:23.681Z,98654.97
2022-11-07T09:12:26.501Z,98660.06
2022-11-07T09:13:30.818Z,98665.09
2022-11-07T09:14:33.653Z,98664.38
2022-11-07T09:15:36.670Z,98665.16
2022-11-07T09:16:39.692Z,98669.75
2022-11-07T09:17:44.186Z,98673.09
2022-11-07T09:18:49.009Z,98665.09
2022-11-07T09:19:51.988Z,98665.28
2022-11-07T09:20:55.064Z,98670.34
2022-11-07T09:21:58.186Z,98675.00
2022-11-07T09:23:01.082Z,98664.38
2022-11-07T09:24:04.182Z,98671.66
2022-11-07T09:25:07.689Z,98668.00
2022-11-07T09:26:10.638Z,98663.84
2022-11-07T09:27:13.701Z,98667.59
2022-11-07T09:28:17.058Z,98668.91
2022-11-07T09:29:20.193Z,98663.34
2022-11-07T09:30:23.135Z,98663.25
2022-11-07T09:31:26.142Z,98666.44
2022-11-07T09:32:44.528Z,98670.47
2022-11-07T09:33:48.279Z,98665.25
2022-11-07T09:34:57.178Z,98669.53
2022-11-07T09:36:05.621Z,98676.09
2022-11-07T09:37:08.611Z,98673.91
2022-11-07T09:38:11.528Z,98663.72
2022-11-07T09:39:14.613Z,98664.22
2022-11-07T09:40:20.254Z,98672.84
2022-11-07T09:41:48.343Z,98669.03
2022-11-07T09:43:11.787Z,98668.69
2022-11-07T09:44:45.661Z,98667.91
2022-11-07T09:46:26.879Z,98674.22
2022-11-07T09:47:34.958Z,98664.88
2022-11-07T09:48:47.792Z,98665.22
2022-11-07T09:49:54.219Z,98666.28
2022-11-07T09:50:57.786Z,98658.41
2022-11-07T09:52:04.660Z,98660.22
2022-11-07T09:53:11.210Z,98661.13
2022-11-07T09:54:28.038Z,98662.88
2022-11-07T09:56:01.202Z,98661.41
2022-11-07T09:57:04.605Z,98663.75
2022-11-07T09:58:32.002Z,98661.69
2022-11-07T09:59:57.630Z,98667.09
2022-11-07T10:01:07.196Z,98664.12
2022-11-07T10:02:18.267Z,98672.19
2022-11-07T10:03:21.448Z,98668.00
2022-11-07T10:04:26.416Z,98667.03
2022-11-07T10:05:51.410Z,98664.44
2022-11-07T10:07:00.763Z,98665.81
2022-11-07T10:08:17.144Z,98668.06
2022-11-07T10:09:32.596Z,98660.97
2022-11-07T10:10:47.151Z,98658.16
2022-11-07T10:12:27.375Z,98655.31
2022-11-07T10:14:02.210Z,98668.34
2022-11-07T10:15:16.869Z,98667.22
2022-11-07T10:16:31.473Z,98661.38
2022-11-07T10:18:31.535Z,98659.25
2022-11-07T10:19:49.575Z,98662.16
2022-11-07T10:21:35.993Z,98661.81
2022-11-07T10:22:50.392Z,98661.75
2022-11-07T10:24:13.964Z,98666.22
2022-11-07T10:25:26.942Z,98665.69
2022-11-07T10:26:31.579Z,98664.12
2022-11-07T10:27:36.180Z,98666.97
2022-11-07T10:28:50.141Z,98661.50
2022-11-07T10:29:57.352Z,98659.81
2022-11-07T10:31:05.302Z,98657.03
2022-11-07T10:32:49.949Z,98653.81
2022-11-07T10:33:57.230Z,98652.53
2022-11-07T10:35:03.064Z,98649.56
2022-11-07T10:36:18.384Z,98649.22
2022-11-07T10:37:21.540Z,98651.66
2022-11-07T10:38:29.605Z,98644.87
2022-11-07T10:39:32.512Z,98644.53
2022-11-07T10:40:40.284Z,98648.72
2022-11-07T10:41:52.459Z,98645.88
2022-11-07T10:42:56.781Z,98640.88
2022-11-07T10:44:03.734Z,98646.81
2022-11-07T10:45:11.860Z,98640.88
2022-11-07T10:46:19.733Z,98642.91
2022-11-07T10:47:25.085Z,98635.31
2022-11-07T10:48:29.833Z,98636.31
2022-11-07T10:49:33.227Z,98635.63
2022-11-07T10:50:36.144Z,98638.66
2022-11-07T10:51:42.660Z,98637.97
2022-11-07T10:52:57.187Z,98636.19
2022-11-07T10:53:59.926Z,98631.66
2022-11-07T10:55:15.805Z,98636.41
2022-11-07T10:56:19.897Z,98635.38
2022-11-07T10:57:23.856Z,98629.03
2022-11-07T10:58:35.905Z,98628.97
2022-11-07T10:59:45.329Z,98633.66
2022-11-07T11:01:04.884Z,98634.63
2022-11-07T11:02:30.853Z,98621.47
2022-11-07T11:03:47.132Z,98621.59
2022-11-07T11:04:51.450Z,98622.78
2022-11-07T11:05:54.319Z,98621.66
2022-11-07T11:07:05.824Z,98616.81
2022-11-07T11:08:16.596Z,98625.50
2022-11-07T11:09:20.332Z,98619.47
2022-11-07T11:10:31.344Z,98618.88
2022-11-07T11:11:36.361Z,98619.84
2022-11-07T11:12:46.458Z,98609.16
2022-11-07T11:13:49.623Z,98609.94
2022-11-07T11:15:04.815Z,98612.78
2022-11-07T11:16:13.967Z,98605.22
2022-11-07T11:17:28.860Z,98605.72
2022-11-07T11:18:31.865Z,98613.06
2022-11-07T11:19:43.106Z,98610.25
2022-11-07T11:20:56.650Z,98607.44
2022-11-07T11:22:00.024Z,98604.50
2022-11-07T11:23:06.271Z,98604.69
2022-11-07T11:24:30.708Z,98605.31
2022-11-07T11:25:44.856Z,98607.16
2022-11-07T11:26:53.353Z,98599.19
2022-11-07T11:28:05.896Z,98611.28
2022-11-07T11:29:22.174Z,98602.25
2022-11-07T11:30:25.527Z,98607.69
2022-11-07T11:31:37.732Z,98608.09
2022-11-07T11:33:03.821Z,98604.91
2022-11-07T11:34:40.358Z,98611.00
2022-11-07T11:35:58.498Z,98603.56
2022-11-07T11:37:29.060Z,98606.09
2022-11-07T11:38:38.697Z,98607.91
2022-11-07T11:39:47.224Z,98608.94
2022-11-07T11:41:03.553Z,98605.16
2022-11-07T11:42:21.345Z,98604.31
2022-11-07T11:43:39.191Z,98603.94
2022-11-07T11:44:46.149Z,98601.16
2022-11-07T11:46:07.259Z,98609.06
2022-11-07T11:47:27.029Z,98601.16
2022-11-07T11:48:39.316Z,98601.94
2022-11-07T11:49:59.366Z,98607.31
2022-11-07T11:51:18.960Z,98606.50
2022-11-07T11:52:24.282Z,98606.78
2022-11-07T11:53:29.152Z,98607.28
2022-11-07T11:54:36.127Z,98605.87
2022-11-07T11:55:51.117Z,98607.13
2022-11-07T11:57:19.222Z,98605.22
2022-11-07T11:58:39.400Z,98609.91
2022-11-07T12:00:25.610Z,98601.38
2022-11-07T12:01:55.280Z,98604.63
2022-11-07T12:03:18.534Z,98598.69
2022-11-07T12:04:36.634Z,98606.34
2022-11-07T12:06:00.476Z,98603.94
2022-11-07T12:07:42.384Z,98599.13
2022-11-07T12:09:05.595Z,98598.84
2022-11-07T12:10:40.463Z,98599.81
2022-11-07T12:12:16.779Z,98598.84
2022-11-07T12:13:37.272Z,98593.53
2022-11-07T12:14:57.279Z,98592.84
2022-11-07T12:16:16.068Z,98591.97
2022-11-07T12:17:37.758Z,98593.31
2022-11-07T12:19:06.286Z,98596.06
2022-11-07T12:20:27.527Z,98598.94
2022-11-07T12:21:34.883Z,98592.22
2022-11-07T12:23:06.696Z,98597.19
2022-11-07T12:24:39.529Z,98597.63
2022-11-07T12:25:49.979Z,98597.41
2022-11-07T12:27:24.120Z,98587.44
2022-11-07T12:28:40.595Z,98588.69
2022-11-07T12:30:14.539Z,98588.22
2022-11-07T12:31:31.335Z,98596.94
2022-11-07T12:32:37.000Z,98587.81
2022-11-07T12:34:17.025Z,98583.06
2022-11-07T12:35:48.059Z,98583.00
2022-11-07T12:37:00.110Z,98580.25
2022-11-07T12:38:26.917Z,98580.47
2022-11-07T12:39:38.642Z,98577.97
2022-11-07T12:40:44.261Z,98573.75
2022-11-07T12:42:06.154Z,98574.06
2022-11-07T12:43:31.932Z,98571.91
2022-11-07T12:44:37.554Z,98564.38
2022-11-07T12:46:05.464Z,98573.00
2022-11-07T12:47:43.006Z,98577.41
2022-11-07T12:49:26.250Z,98570.13
2022-11-07T12:50:28.934Z,98574.25
2022-11-07T12:51:43.828Z,98569.50
2022-11-07T12:53:04.362Z,98574.25
2022-11-07T12:54:16.528Z,98577.16
2022-11-07T12:55:42.173Z,98570.03
2022-11-07T12:56:47.909Z,98575.53
2022-11-07T12:57:53.874Z,98568.75
2022-11-07T12:58:58.081Z,98568.53
2022-11-07T13:00:15.883Z,98571.66
2022-11-07T13:01:24.740Z,98573.53
2022-11-07T13:03:10.180Z,98564.69
2022-11-07T13:04:20.771Z,98562.84
2022-11-07T13:05:45.212Z,98558.16
2022-11-07T13:07:02.955Z,98572.47
2022-11-07T13:08:14.046Z,98564.91
2022-11-07T13:09:41.453Z,98566.88
2022-11-07T13:10:59.165Z,98575.34
2022-11-07T13:12:26.924Z,98564.44
2022-11-07T13:13:46.694Z,98571.53
2022-11-07T13:14:50.407Z,98567.94
2022-11-07T13:16:14.677Z,98572.34